Terminal Aerodrome Forecast
Issued by NWS Brownsville, TX

Current Version | Previous Version | Text Only | Print | Product List | Glossary Off
Versions: 1 2 3 4 5 6 7 8 9 10 11 12 13 14 15

000
FTUS44 KBRO 050525
TAFBRO
TAF
KBRO 050525Z 0506/0606 13007KT P6SM SCT020
     FM051600 15015G20KT P6SM SCT050
     FM060000 14009KT P6SM SKC=

USA.gov is the U.S. government's official web portal to all federal, state and local government web resources and services.